createdAt,value
2018-03-02T00:00:52.479Z,88.40
2018-03-02T00:03:19.091Z,88.80
2018-03-02T00:05:45.290Z,88.80
2018-03-02T00:08:11.529Z,89.00
2018-03-02T00:10:37.767Z,89.00
2018-03-02T00:13:03.974Z,89.20
2018-03-02T00:15:30.192Z,89.20
2018-03-02T00:17:56.419Z,89.30
2018-03-02T00:20:22.671Z,89.60
2018-03-02T00:22:48.888Z,89.80
2018-03-02T00:25:15.083Z,89.90
2018-03-02T00:27:41.328Z,89.80
2018-03-02T00:30:07.558Z,90.00
2018-03-02T00:32:33.788Z,90.00
2018-03-02T00:35:00.784Z,90.10
2018-03-02T00:37:27.018Z,90.10
2018-03-02T00:39:53.232Z,90.00
2018-03-02T00:42:20.240Z,90.20
2018-03-02T00:44:47.196Z,90.20
2018-03-02T00:47:13.424Z,90.20
2018-03-02T00:49:39.640Z,90.30
2018-03-02T00:52:05.914Z,90.30
2018-03-02T00:54:32.119Z,90.30
2018-03-02T00:56:58.354Z,90.30
2018-03-02T00:59:25.343Z,90.70
2018-03-02T01:01:51.570Z,90.40
2018-03-02T01:04:17.787Z,90.40
2018-03-02T01:06:44.732Z,90.50
2018-03-02T01:09:11.695Z,90.60
2018-03-02T01:11:38.656Z,90.60
2018-03-02T01:14:05.607Z,90.60
2018-03-02T01:16:32.561Z,90.70
2018-03-02T01:18:58.773Z,90.70
2018-03-02T01:21:25.021Z,90.70
2018-03-02T01:23:51.263Z,90.80
2018-03-02T01:26:17.817Z,90.80
2018-03-02T01:28:44.117Z,90.80
2018-03-02T01:31:10.363Z,90.90
2018-03-02T01:33:36.581Z,90.90
2018-03-02T01:36:02.851Z,90.90
2018-03-02T01:38:29.095Z,91.00
2018-03-02T01:40:55.355Z,91.10
2018-03-02T01:43:21.577Z,91.20
2018-03-02T01:45:47.806Z,91.10
2018-03-02T01:48:14.087Z,91.40
2018-03-02T01:50:40.298Z,91.00
2018-03-02T01:53:06.531Z,91.00
2018-03-02T01:55:32.757Z,91.10
2018-03-02T01:57:58.976Z,91.10
2018-03-02T02:00:25.191Z,91.10
2018-03-02T02:02:51.426Z,91.00
2018-03-02T02:05:17.651Z,91.00
2018-03-02T02:07:43.877Z,91.00
2018-03-02T02:10:10.661Z,91.00
2018-03-02T02:12:36.870Z,91.10
2018-03-02T02:15:03.086Z,91.10
2018-03-02T02:17:29.332Z,91.10
2018-03-02T02:19:55.549Z,91.20
2018-03-02T02:22:22.537Z,91.20
2018-03-02T02:24:48.748Z,91.20
2018-03-02T02:27:15.692Z,91.20
2018-03-02T02:29:42.694Z,91.30
2018-03-02T02:32:09.627Z,91.30
2018-03-02T02:34:35.850Z,91.30
2018-03-02T02:37:02.865Z,91.30
2018-03-02T02:39:29.152Z,91.20
2018-03-02T02:41:56.098Z,91.20
2018-03-02T02:44:23.113Z,91.40
2018-03-02T02:46:49.350Z,91.10
2018-03-02T02:49:15.561Z,91.10
2018-03-02T02:51:41.806Z,91.10
2018-03-02T02:54:08.064Z,91.10
2018-03-02T02:56:34.304Z,91.10
2018-03-02T02:59:00.518Z,91.10
2018-03-02T03:01:26.770Z,91.20
2018-03-02T03:03:52.994Z,91.20
2018-03-02T03:06:19.937Z,91.40
2018-03-02T03:08:46.176Z,91.30
2018-03-02T03:11:13.136Z,91.50
2018-03-02T03:13:40.126Z,91.60
2018-03-02T03:16:06.400Z,91.60
2018-03-02T03:18:32.628Z,91.60
2018-03-02T03:20:58.844Z,91.60
2018-03-02T03:23:25.050Z,91.70
2018-03-02T03:25:51.275Z,91.80
2018-03-02T03:28:17.483Z,91.80
2018-03-02T03:30:43.690Z,91.90
2018-03-02T03:33:10.655Z,92.20
2018-03-02T03:35:36.851Z,92.20
2018-03-02T03:38:03.092Z,92.20
2018-03-02T03:40:29.299Z,92.30
2018-03-02T03:42:55.543Z,92.30
2018-03-02T03:45:21.759Z,92.40
2018-03-02T03:47:48.019Z,92.40
2018-03-02T03:50:14.255Z,92.30
2018-03-02T03:52:40.475Z,92.30
2018-03-02T03:55:06.709Z,92.30
2018-03-02T03:57:33.667Z,92.40
2018-03-02T04:00:00.619Z,92.40
2018-03-02T04:02:27.581Z,92.40
2018-03-02T04:04:54.527Z,92.30
2018-03-02T04:07:21.489Z,92.30
2018-03-02T04:09:48.423Z,92.40
2018-03-02T04:12:14.626Z,92.40
2018-03-02T04:14:40.924Z,92.40
2018-03-02T04:17:07.094Z,92.30
2018-03-02T04:19:33.342Z,92.30
2018-03-02T04:21:59.542Z,92.40
2018-03-02T04:24:26.517Z,92.50
2018-03-02T04:26:52.755Z,92.50
2018-03-02T04:29:19.713Z,92.40
2018-03-02T04:31:46.732Z,92.50
2018-03-02T04:34:12.942Z,92.50
2018-03-02T04:36:39.183Z,92.40
2018-03-02T04:39:05.386Z,92.40
2018-03-02T04:41:32.357Z,92.30
2018-03-02T04:43:58.554Z,92.30
2018-03-02T04:46:24.772Z,92.20
2018-03-02T04:48:50.999Z,92.30
2018-03-02T04:51:17.197Z,92.20
2018-03-02T04:53:44.146Z,92.20
2018-03-02T04:56:10.355Z,92.20
2018-03-02T04:58:36.548Z,92.10
2018-03-02T05:01:02.786Z,92.20
2018-03-02T05:03:29.014Z,92.20
2018-03-02T05:05:55.971Z,92.10
2018-03-02T05:08:22.918Z,92.10
2018-03-02T05:10:49.136Z,92.10
2018-03-02T05:13:15.336Z,92.00
2018-03-02T05:15:41.546Z,92.00
2018-03-02T05:18:08.492Z,92.00
2018-03-02T05:20:35.522Z,92.30
2018-03-02T05:23:01.815Z,92.10
2018-03-02T05:25:28.027Z,92.10
2018-03-02T05:27:54.569Z,92.10
2018-03-02T05:30:20.829Z,92.10
2018-03-02T05:32:47.794Z,92.10
2018-03-02T05:35:14.028Z,92.10
2018-03-02T05:37:41.028Z,99.90
2018-03-02T05:40:07.262Z,99.90
2018-03-02T05:42:33.487Z,99.90
2018-03-02T05:44:59.703Z,99.90
2018-03-02T05:47:26.640Z,94.30
2018-03-02T05:49:52.862Z,94.20
2018-03-02T05:52:19.093Z,86.70
2018-03-02T05:54:45.315Z,81.60
2018-03-02T05:57:11.536Z,79.30
2018-03-02T05:59:37.750Z,78.70
2018-03-02T06:02:03.986Z,79.40
2018-03-02T06:04:30.200Z,80.40
2018-03-02T06:06:56.434Z,82.00
2018-03-02T06:09:22.647Z,83.40
2018-03-02T06:11:48.932Z,84.20
2018-03-02T06:14:15.194Z,85.00
2018-03-02T06:16:41.400Z,85.90
2018-03-02T06:19:07.623Z,86.30
2018-03-02T06:21:33.875Z,86.70
2018-03-02T06:24:00.138Z,87.30
2018-03-02T06:26:26.361Z,87.90
2018-03-02T06:28:52.588Z,88.30
2018-03-02T06:31:18.795Z,88.50
2018-03-02T06:33:45.763Z,88.70
2018-03-02T06:36:11.989Z,88.70
2018-03-02T06:38:38.953Z,89.40
2018-03-02T06:41:05.171Z,89.30
2018-03-02T06:43:38.387Z,90.90
2018-03-02T06:46:05.360Z,91.50
2018-03-02T06:48:31.563Z,91.40
2018-03-02T06:50:57.795Z,91.50
2018-03-02T06:53:24.024Z,90.50
2018-03-02T06:55:50.246Z,90.20
2018-03-02T06:58:16.477Z,90.20
2018-03-02T07:00:42.704Z,90.40
2018-03-02T07:03:09.063Z,90.20
2018-03-02T07:05:35.288Z,90.10
2018-03-02T07:08:01.531Z,89.60
2018-03-02T07:10:27.761Z,89.00
2018-03-02T07:12:54.774Z,88.80
2018-03-02T07:15:20.995Z,88.80
2018-03-02T07:17:47.201Z,88.70
2018-03-02T07:20:14.191Z,88.90
2018-03-02T07:22:40.394Z,88.90
2018-03-02T07:25:07.410Z,88.90
2018-03-02T07:27:33.675Z,88.80
2018-03-02T07:30:00.656Z,88.60
2018-03-02T07:32:27.632Z,88.50
2018-03-02T07:35:00.835Z,88.50
2018-03-02T07:37:27.061Z,88.50
2018-03-02T07:39:53.299Z,88.50
2018-03-02T07:42:20.325Z,88.70
2018-03-02T07:44:46.532Z,88.60
2018-03-02T07:47:12.771Z,88.30
2018-03-02T07:49:39.008Z,88.20
2018-03-02T07:52:05.245Z,88.70
2018-03-02T07:54:31.472Z,89.00
2018-03-02T07:56:57.684Z,87.40
2018-03-02T07:59:24.663Z,85.80
2018-03-02T08:01:50.884Z,85.80
2018-03-02T08:04:17.988Z,86.80
2018-03-02T08:06:44.938Z,86.00
2018-03-02T08:09:11.152Z,85.90
2018-03-02T08:11:37.385Z,85.40
2018-03-02T08:14:04.397Z,85.00
2018-03-02T08:16:30.619Z,85.00
2018-03-02T08:18:56.827Z,84.40
2018-03-02T08:21:23.790Z,84.50
2018-03-02T08:23:50.743Z,84.30
2018-03-02T08:26:17.726Z,84.00
2018-03-02T08:28:43.971Z,84.00
2018-03-02T08:31:10.194Z,83.70
2018-03-02T08:33:36.403Z,83.40
2018-03-02T08:36:02.625Z,83.50
2018-03-02T08:38:28.862Z,83.20
2018-03-02T08:40:55.084Z,83.50
2018-03-02T08:43:21.666Z,83.30
2018-03-02T08:45:47.872Z,83.20
2018-03-02T08:48:14.109Z,83.00
2018-03-02T08:50:40.379Z,82.80
2018-03-02T08:53:06.591Z,82.70
2018-03-02T08:55:33.184Z,82.70
2018-03-02T08:57:59.384Z,82.70
2018-03-02T09:00:25.591Z,82.50
2018-03-02T09:02:51.813Z,82.30
2018-03-02T09:05:18.779Z,82.10
2018-03-02T09:07:45.775Z,82.30
2018-03-02T09:10:12.035Z,82.30
2018-03-02T09:12:38.975Z,81.80
2018-03-02T09:15:05.263Z,81.80
2018-03-02T09:17:31.465Z,81.60
2018-03-02T09:19:58.495Z,81.40
2018-03-02T09:22:25.431Z,81.40
2018-03-02T09:24:52.417Z,81.20
2018-03-02T09:27:18.635Z,81.20
2018-03-02T09:29:45.611Z,80.80
2018-03-02T09:32:11.845Z,80.80
2018-03-02T09:34:38.063Z,80.50
2018-03-02T09:37:05.019Z,80.00
2018-03-02T09:39:32.009Z,79.90
2018-03-02T09:41:58.227Z,79.80
2018-03-02T09:44:25.193Z,79.50
2018-03-02T09:46:51.436Z,79.40
2018-03-02T09:49:17.658Z,79.00
2018-03-02T09:51:44.608Z,77.70
2018-03-02T09:54:11.604Z,77.80
2018-03-02T09:56:37.856Z,77.70
2018-03-02T09:59:04.115Z,77.40
2018-03-02T10:01:31.072Z,77.10
2018-03-02T10:03:57.284Z,77.10
2018-03-02T10:06:23.525Z,76.70
2018-03-02T10:08:49.731Z,76.40
2018-03-02T10:11:16.707Z,75.90
2018-03-02T10:13:42.941Z,76.50
2018-03-02T10:16:09.455Z,75.30
2018-03-02T10:18:35.654Z,75.50
2018-03-02T10:21:01.934Z,75.20
2018-03-02T10:23:28.188Z,73.40
2018-03-02T10:25:55.162Z,72.30
2018-03-02T10:28:22.118Z,70.20
2018-03-02T10:30:49.072Z,69.60
2018-03-02T10:33:16.031Z,69.60
2018-03-02T10:35:43.062Z,69.80
2018-03-02T10:38:09.260Z,69.80
2018-03-02T10:40:35.512Z,69.20
2018-03-02T10:43:01.721Z,69.00
2018-03-02T10:45:27.952Z,68.50
2018-03-02T10:47:54.919Z,67.00
2018-03-02T10:50:21.439Z,67.00
2018-03-02T10:52:48.396Z,67.50
2018-03-02T10:55:14.615Z,67.10
2018-03-02T10:57:40.846Z,66.70
2018-03-02T11:00:07.072Z,66.00
2018-03-02T11:02:33.336Z,65.50
2018-03-02T11:05:05.742Z,64.70
2018-03-02T11:07:32.724Z,64.40
2018-03-02T11:09:58.964Z,63.70
2018-03-02T11:12:25.961Z,62.80
2018-03-02T11:14:52.217Z,62.70
2018-03-02T11:17:18.455Z,62.60
2018-03-02T11:19:44.734Z,62.10
2018-03-02T11:22:11.685Z,61.60
2018-03-02T11:24:38.674Z,61.60
2018-03-02T11:27:04.889Z,61.50
2018-03-02T11:29:31.837Z,60.80
2018-03-02T11:31:58.061Z,60.70
2018-03-02T11:34:25.755Z,59.30
2018-03-02T11:36:52.803Z,59.10
2018-03-02T11:39:19.015Z,59.00
2018-03-02T11:41:45.259Z,58.50
2018-03-02T11:44:11.472Z,58.50
2018-03-02T11:46:37.708Z,58.30
2018-03-02T11:49:03.967Z,57.80
2018-03-02T11:51:30.182Z,57.60
2018-03-02T11:53:56.417Z,57.60
2018-03-02T11:56:22.621Z,57.00
2018-03-02T11:58:48.852Z,56.40
2018-03-02T12:01:15.077Z,56.40
2018-03-02T12:03:41.320Z,56.50
2018-03-02T12:06:08.284Z,56.20
2018-03-02T12:08:34.501Z,56.10
2018-03-02T12:11:00.733Z,55.60
2018-03-02T12:13:26.962Z,55.40
2018-03-02T12:15:53.184Z,54.80
2018-03-02T12:18:20.154Z,55.20
2018-03-02T12:20:46.389Z,55.20
2018-03-02T12:23:13.344Z,54.80
2018-03-02T12:25:39.568Z,54.80
2018-03-02T12:28:06.545Z,52.90
2018-03-02T12:30:33.518Z,52.80
2018-03-02T12:32:59.756Z,52.80
2018-03-02T12:35:25.958Z,53.10
2018-03-02T12:37:52.198Z,53.10
2018-03-02T12:40:18.443Z,53.60
2018-03-02T12:42:44.672Z,53.40
2018-03-02T12:45:10.908Z,53.90
2018-03-02T12:47:37.148Z,53.60
2018-03-02T12:50:03.377Z,53.10
2018-03-02T12:52:29.610Z,52.50
2018-03-02T12:54:55.856Z,51.70
2018-03-02T12:57:22.070Z,52.20
2018-03-02T12:59:48.359Z,52.40
2018-03-02T13:02:14.629Z,51.80
2018-03-02T13:04:40.875Z,51.80
2018-03-02T13:07:07.103Z,52.70
2018-03-02T13:09:34.086Z,53.00
2018-03-02T13:12:00.322Z,53.00
2018-03-02T13:14:26.552Z,53.20
2018-03-02T13:16:52.783Z,53.60
2018-03-02T13:19:19.787Z,53.00
2018-03-02T13:21:45.985Z,52.90
2018-03-02T13:24:12.988Z,55.10
2018-03-02T13:26:51.601Z,55.10
2018-03-02T13:29:17.879Z,59.50
2018-03-02T13:31:44.152Z,58.80
2018-03-02T13:34:23.411Z,55.80
2018-03-02T13:36:49.638Z,55.80
2018-03-02T13:39:28.915Z,53.10
2018-03-02T13:42:10.065Z,53.10
2018-03-02T13:44:37.067Z,48.60
2018-03-02T13:47:03.287Z,48.70
2018-03-02T13:49:41.752Z,48.00
2018-03-02T13:52:08.019Z,48.50
2018-03-02T13:54:34.267Z,49.90
2018-03-02T13:57:12.710Z,50.40
2018-03-02T13:59:39.689Z,50.90
2018-03-02T14:02:05.981Z,50.90
2018-03-02T14:04:44.511Z,51.00
2018-03-02T14:07:10.772Z,51.50
2018-03-02T14:09:37.787Z,51.70
2018-03-02T14:12:04.029Z,51.70
2018-03-02T14:14:30.293Z,51.90
2018-03-02T14:16:56.538Z,51.90
2018-03-02T14:19:22.808Z,51.70
2018-03-02T14:21:49.807Z,52.10
2018-03-02T14:24:16.061Z,52.10
2018-03-02T14:26:42.295Z,52.20
2018-03-02T14:29:08.526Z,52.00
2018-03-02T14:31:34.759Z,52.30
2018-03-02T14:34:00.988Z,52.50
2018-03-02T14:36:27.236Z,53.00
2018-03-02T14:38:53.458Z,53.60
2018-03-02T14:41:19.689Z,54.20
2018-03-02T14:43:46.673Z,55.70
2018-03-02T14:46:12.903Z,55.60
2018-03-02T14:48:39.142Z,56.40
2018-03-02T14:51:05.447Z,57.10
2018-03-02T14:53:31.718Z,57.70
2018-03-02T14:55:58.678Z,59.10
2018-03-02T14:58:24.933Z,59.00
2018-03-02T15:00:51.148Z,59.40
2018-03-02T15:03:18.128Z,61.30
2018-03-02T15:05:44.403Z,61.30
2018-03-02T15:08:10.639Z,62.80
2018-03-02T15:10:36.930Z,61.70
2018-03-02T15:13:03.915Z,60.90
2018-03-02T15:15:30.142Z,60.90
2018-03-02T15:17:56.394Z,60.60
2018-03-02T15:20:22.655Z,60.70
2018-03-02T15:22:48.880Z,61.10
2018-03-02T15:25:15.113Z,61.70
2018-03-02T15:27:41.347Z,62.20
2018-03-02T15:30:07.582Z,62.50
2018-03-02T15:32:33.820Z,63.00
2018-03-02T15:35:00.060Z,63.30
2018-03-02T15:37:27.054Z,63.70
2018-03-02T15:39:53.282Z,63.70
2018-03-02T15:42:19.526Z,64.00
2018-03-02T15:44:45.762Z,64.10
2018-03-02T15:47:11.981Z,64.30
2018-03-02T15:49:38.964Z,64.40
2018-03-02T15:52:05.216Z,64.40
2018-03-02T15:54:31.450Z,64.70
2018-03-02T15:56:57.680Z,64.80
2018-03-02T15:59:23.932Z,65.00
2018-03-02T16:01:50.196Z,65.20
2018-03-02T16:04:16.420Z,65.30
2018-03-02T16:06:42.721Z,65.40
2018-03-02T16:09:08.938Z,65.30
2018-03-02T16:11:35.166Z,65.30
2018-03-02T16:14:01.406Z,65.30
2018-03-02T16:16:27.622Z,65.50
2018-03-02T16:18:53.861Z,65.50
2018-03-02T16:21:20.109Z,65.60
2018-03-02T16:23:46.355Z,65.90
2018-03-02T16:26:12.641Z,65.50
2018-03-02T16:28:39.605Z,65.60
2018-03-02T16:31:06.576Z,65.80
2018-03-02T16:33:32.799Z,65.80
2018-03-02T16:35:59.790Z,65.90
2018-03-02T16:38:26.041Z,65.90
2018-03-02T16:40:52.268Z,65.90
2018-03-02T16:43:18.531Z,66.00
2018-03-02T16:45:44.753Z,66.00
2018-03-02T16:48:11.008Z,66.20
2018-03-02T16:50:37.263Z,66.40
2018-03-02T16:53:04.387Z,66.60
2018-03-02T16:55:30.642Z,66.70
2018-03-02T16:57:56.880Z,66.80
2018-03-02T17:00:23.163Z,66.90
2018-03-02T17:02:49.445Z,67.10
2018-03-02T17:05:15.959Z,68.00
2018-03-02T17:07:42.963Z,67.70
2018-03-02T17:10:09.232Z,67.60
2018-03-02T17:12:35.527Z,67.90
2018-03-02T17:15:01.760Z,68.20
2018-03-02T17:17:28.029Z,68.30
2018-03-02T17:19:54.252Z,68.50
2018-03-02T17:22:20.485Z,68.80
2018-03-02T17:24:46.745Z,69.20
2018-03-02T17:27:12.987Z,69.50
2018-03-02T17:29:39.248Z,69.90
2018-03-02T17:32:05.473Z,70.30
2018-03-02T17:34:31.766Z,70.60
2018-03-02T17:36:57.979Z,70.80
2018-03-02T17:39:24.270Z,71.00
2018-03-02T17:41:50.530Z,71.00
2018-03-02T17:44:16.772Z,71.00
2018-03-02T17:46:43.117Z,71.20
2018-03-02T17:49:09.383Z,71.80
2018-03-02T17:51:35.611Z,72.20
2018-03-02T17:54:01.850Z,72.50
2018-03-02T17:56:28.148Z,72.90
2018-03-02T17:58:55.156Z,73.70
2018-03-02T18:01:21.414Z,73.70
2018-03-02T18:03:47.650Z,74.00
2018-03-02T18:06:13.941Z,74.20
2018-03-02T18:08:40.197Z,74.60
2018-03-02T18:11:06.536Z,74.80
2018-03-02T18:13:33.480Z,75.60
2018-03-02T18:15:59.747Z,75.60
2018-03-02T18:18:26.014Z,75.90
2018-03-02T18:20:52.301Z,76.20
2018-03-02T18:23:19.325Z,76.10
2018-03-02T18:25:45.561Z,76.10
2018-03-02T18:28:11.826Z,76.40
2018-03-02T18:30:38.791Z,76.90
2018-03-02T18:33:05.821Z,77.20
2018-03-02T18:35:32.103Z,77.10
2018-03-02T18:37:58.422Z,77.40
2018-03-02T18:40:25.410Z,78.10
2018-03-02T18:42:51.639Z,77.90
2018-03-02T18:45:17.889Z,78.20
2018-03-02T18:47:44.142Z,78.40
2018-03-02T18:50:10.389Z,78.60
2018-03-02T18:52:36.667Z,78.80
2018-03-02T18:55:02.933Z,79.30
2018-03-02T18:57:29.937Z,80.20
2018-03-02T18:59:56.293Z,80.10
2018-03-02T19:02:22.892Z,80.70
2018-03-02T19:04:49.862Z,81.70
2018-03-02T19:07:16.090Z,81.60
2018-03-02T19:09:43.091Z,82.80
2018-03-02T19:12:09.370Z,82.80
2018-03-02T19:14:35.651Z,83.40
2018-03-02T19:17:01.927Z,84.00
2018-03-02T19:19:29.311Z,84.70
2018-03-02T19:21:55.605Z,85.20
2018-03-02T19:24:21.882Z,85.70
2018-03-02T19:26:48.228Z,86.20
2018-03-02T19:29:14.554Z,86.90
2018-03-02T19:31:40.895Z,87.80
2018-03-02T19:34:07.174Z,87.30
2018-03-02T19:36:34.208Z,88.10
2018-03-02T19:39:00.629Z,88.00
2018-03-02T19:41:26.951Z,88.30
2018-03-02T19:43:53.253Z,88.60
2018-03-02T19:46:19.627Z,89.00
2018-03-02T19:48:46.024Z,89.70
2018-03-02T19:51:12.326Z,89.80
2018-03-02T19:53:38.911Z,90.00
2018-03-02T19:56:05.206Z,90.20
2018-03-02T19:58:31.509Z,90.50
2018-03-02T20:00:57.851Z,90.70
2018-03-02T20:03:24.141Z,91.00
2018-03-02T20:05:50.467Z,91.30
2018-03-02T20:08:17.776Z,91.70
2018-03-02T20:10:44.082Z,91.70
2018-03-02T20:13:10.453Z,91.90
2018-03-02T20:15:36.767Z,92.10
2018-03-02T20:18:03.461Z,92.30
2018-03-02T20:20:29.821Z,92.50
2018-03-02T20:22:56.200Z,92.70
2018-03-02T20:25:23.206Z,93.10
2018-03-02T20:27:49.520Z,93.10
2018-03-02T20:30:15.888Z,93.30
2018-03-02T20:32:42.997Z,93.60
2018-03-02T20:35:10.112Z,93.80
2018-03-02T20:37:36.436Z,93.70
2018-03-02T20:40:02.767Z,93.90
2018-03-02T20:42:29.034Z,94.10
2018-03-02T20:44:55.300Z,94.30
2018-03-02T20:47:21.666Z,94.50
2018-03-02T20:49:47.952Z,94.60
2018-03-02T20:52:14.258Z,94.70
2018-03-02T20:54:41.345Z,94.90
2018-03-02T20:57:07.698Z,94.90
2018-03-02T20:59:33.982Z,94.90
2018-03-02T21:02:00.230Z,95.10
2018-03-02T21:04:27.324Z,95.40
2018-03-02T21:06:53.610Z,95.40
2018-03-02T21:09:19.942Z,95.50
2018-03-02T21:11:46.221Z,95.60
2018-03-02T21:14:13.252Z,95.80
2018-03-02T21:16:39.530Z,95.70
2018-03-02T21:19:06.548Z,95.90
2018-03-02T21:21:32.880Z,95.90
2018-03-02T21:23:59.122Z,95.80
2018-03-02T21:26:25.366Z,95.80
2018-03-02T21:28:52.390Z,96.00
2018-03-02T21:31:18.743Z,96.30
2018-03-02T21:33:45.030Z,95.90
2018-03-02T21:36:11.247Z,95.90
2018-03-02T21:38:38.302Z,96.10
2018-03-02T21:41:04.531Z,96.10
2018-03-02T21:43:30.797Z,96.20
2018-03-02T21:45:57.065Z,96.20
2018-03-02T21:48:23.297Z,96.10
2018-03-02T21:50:49.570Z,96.10
2018-03-02T21:53:15.843Z,96.10
2018-03-02T21:55:42.128Z,96.10
2018-03-02T21:58:09.128Z,96.20
2018-03-02T22:00:35.392Z,96.10
2018-03-02T22:03:01.626Z,96.10
2018-03-02T22:05:27.844Z,96.10
2018-03-02T22:07:54.090Z,96.10
2018-03-02T22:10:20.298Z,96.10
2018-03-02T22:12:46.537Z,96.20
2018-03-02T22:15:12.756Z,96.30
2018-03-02T22:17:38.995Z,96.40
2018-03-02T22:20:05.241Z,96.40
2018-03-02T22:22:31.896Z,96.40
2018-03-02T22:24:58.121Z,96.60
2018-03-02T22:27:24.339Z,96.60
2018-03-02T22:29:50.551Z,96.60
2018-03-02T22:32:16.766Z,96.70
2018-03-02T22:34:42.995Z,96.80
2018-03-02T22:37:09.202Z,96.70
2018-03-02T22:39:35.517Z,96.80
2018-03-02T22:42:01.676Z,96.80
2018-03-02T22:44:27.892Z,96.80
2018-03-02T22:46:54.160Z,96.90
2018-03-02T22:49:20.436Z,96.90
2018-03-02T22:51:46.656Z,96.90
2018-03-02T22:54:12.880Z,96.90
2018-03-02T22:56:39.107Z,96.90
2018-03-02T22:59:05.338Z,96.90
2018-03-02T23:01:31.556Z,96.90
2018-03-02T23:03:58.505Z,96.90
2018-03-02T23:06:24.738Z,96.90
2018-03-02T23:08:50.955Z,97.00
2018-03-02T23:11:17.160Z,97.20
2018-03-02T23:13:43.403Z,97.10
2018-03-02T23:16:09.636Z,97.20
2018-03-02T23:18:35.855Z,97.20
2018-03-02T23:21:02.867Z,97.20
2018-03-02T23:23:29.125Z,97.20
2018-03-02T23:25:55.363Z,97.10
2018-03-02T23:28:22.316Z,97.10
2018-03-02T23:30:48.537Z,97.40
2018-03-02T23:33:14.786Z,97.20
2018-03-02T23:35:41.012Z,97.10
2018-03-02T23:38:07.271Z,97.10
2018-03-02T23:40:33.470Z,97.10
2018-03-02T23:42:59.727Z,97.20
2018-03-02T23:45:25.965Z,97.20
2018-03-02T23:47:52.184Z,97.20
2018-03-02T23:50:18.414Z,97.20
2018-03-02T23:52:45.370Z,97.20
2018-03-02T23:55:12.352Z,97.10
2018-03-02T23:57:38.568Z,97.10
